Time;durP1;ratioP1;P1;durP2;ratioP2;P2;SDS_P1;SDS_P2;PMS_P1;PMS_P2;Temp;Humidity;BMP_temperature;BMP_pressure;BME280_temperature;BME280_humidity;BME280_pressure;Samples;Min_cycle;Max_cycle;Signal;HPM_P1;HPM_P2
2022/04/23 00:01:53;;;;;;;11.57;7.53;;;;;;;8.90;92.87;97710.41;5112796;28;20047;-65
2022/04/23 00:04:39;;;;;;;9.10;5.82;;;;;;;8.91;92.88;97714.69;5113069;28;20036;-67
2022/04/23 00:07:24;;;;;;;14.05;7.20;;;;;;;8.87;93.69;97708.88;5112537;28;20501;-66
2022/04/23 00:10:09;;;;;;;9.82;5.82;;;;;;;8.90;91.91;97718.25;5112776;28;20035;-65
2022/04/23 00:12:54;;;;;;;8.27;5.53;;;;;;;8.95;90.60;97720.50;5097213;28;20042;-66
2022/04/23 00:15:39;;;;;;;7.65;4.60;;;;;;;8.97;89.54;97729.06;5115662;28;20050;-66
2022/04/23 00:18:24;;;;;;;12.13;7.53;;;;;;;8.99;91.22;97722.75;5116678;28;20191;-68
2022/04/23 00:21:09;;;;;;;9.48;5.43;;;;;;;9.05;89.76;97723.22;5115213;28;20425;-67
2022/04/23 00:23:54;;;;;;;12.20;7.85;;;;;;;9.12;89.65;97732.25;5115384;28;20058;-67
2022/04/23 00:26:41;;;;;;;5.35;4.40;;;;;;;9.15;89.25;97732.00;5114988;28;20466;-68
2022/04/23 00:29:26;;;;;;;13.18;6.95;;;;;;;9.19;89.82;97730.00;5116176;28;20035;-67
2022/04/23 00:32:11;;;;;;;9.90;6.78;;;;;;;9.09;90.47;97730.69;5100886;28;20089;-67
2022/04/23 00:34:55;;;;;;;9.30;6.15;;;;;;;8.98;90.96;97726.31;5115279;28;20432;-67
2022/04/23 00:37:41;;;;;;;7.57;5.18;;;;;;;9.05;90.60;97723.22;5116155;28;20085;-67
2022/04/23 00:40:27;;;;;;;10.38;7.10;;;;;;;9.10;90.42;97728.94;5115775;28;20036;-66
2022/04/23 00:43:28;;;;;;;11.35;8.07;;;;;;;9.02;90.95;97726.91;5115801;28;20038;-66
2022/04/23 00:46:13;;;;;;;11.20;6.95;;;;;;;9.05;90.40;97733.69;5113027;28;20394;-67
2022/04/23 00:48:58;;;;;;;11.82;7.30;;;;;;;9.12;90.68;97727.03;5115002;28;20043;-67
2022/04/23 00:51:44;;;;;;;13.10;7.45;;;;;;;8.98;91.03;97731.56;5109913;28;20032;-67
2022/04/23 00:54:29;;;;;;;8.75;6.25;;;;;;;9.07;88.96;97732.63;5111510;27;20028;-67
2022/04/23 00:57:13;;;;;;;11.27;7.43;;;;;;;9.13;88.90;97728.69;5093080;28;20395;-66
2022/04/23 01:00:00;;;;;;;12.40;8.07;;;;;;;9.07;90.48;97735.22;5101776;28;20107;-67
2022/04/23 01:02:45;;;;;;;6.88;4.75;;;;;;;8.93;90.78;97731.06;5109188;28;20090;-67
2022/04/23 01:05:30;;;;;;;8.77;5.97;;;;;;;8.94;91.92;97737.97;5099637;28;20069;-66
2022/04/23 01:08:19;;;;;;;11.80;6.78;;;;;;;8.95;92.55;97739.63;5102848;28;20556;-65
2022/04/23 01:11:04;;;;;;;19.58;11.18;;;;;;;8.92;94.70;97739.88;5093696;28;20135;-66
2022/04/23 01:13:49;;;;;;;17.65;10.15;;;;;;;8.95;92.91;97739.63;5079743;28;20047;-66
2022/04/23 01:16:33;;;;;;;9.05;5.65;;;;;;;9.00;90.83;97736.66;5095230;28;20455;-66
2022/04/23 01:19:19;;;;;;;10.90;6.70;;;;;;;9.06;90.49;97735.31;5095017;28;20051;-66
2022/04/23 01:22:04;;;;;;;12.13;7.60;;;;;;;9.07;89.77;97735.22;5112452;28;20471;-66
2022/04/23 01:24:51;;;;;;;11.02;5.90;;;;;;;9.10;87.87;97737.59;5114912;28;20107;-67
2022/04/23 01:27:37;;;;;;;10.07;6.32;;;;;;;9.11;88.02;97741.88;5115270;28;20043;-65
2022/04/23 01:30:22;;;;;;;11.63;6.72;;;;;;;9.09;87.30;97733.31;5113813;28;20040;-67
2022/04/23 01:33:07;;;;;;;8.32;5.65;;;;;;;9.12;86.95;97732.25;5115152;28;20466;-66
2022/04/23 01:35:51;;;;;;;10.63;5.45;;;;;;;9.12;87.43;97729.63;5115283;28;20036;-67
2022/04/23 01:38:36;;;;;;;8.55;5.55;;;;;;;9.06;88.71;97728.31;5114874;28;20039;-63
2022/04/23 01:41:21;;;;;;;8.82;5.88;;;;;;;9.07;87.70;97731.78;5115146;28;20077;-67
2022/04/23 01:44:06;;;;;;;9.30;6.32;;;;;;;9.11;86.44;97733.19;5114990;28;20031;-66
2022/04/23 01:46:51;;;;;;;9.02;6.22;;;;;;;9.09;86.92;97730.69;5115068;28;20051;-67
2022/04/23 01:49:36;;;;;;;12.02;7.55;;;;;;;9.12;87.05;97733.06;5115236;28;20048;-67
2022/04/23 01:52:21;;;;;;;11.13;6.53;;;;;;;9.13;87.55;97731.28;5113964;28;20059;-67
2022/04/23 01:55:06;;;;;;;8.13;4.93;;;;;;;9.21;85.69;97725.44;5114615;28;20359;-66
2022/04/23 01:57:51;;;;;;;10.98;5.03;;;;;;;9.16;85.29;97725.81;5114554;28;20039;-67
2022/04/23 02:00:36;;;;;;;10.18;6.40;;;;;;;9.18;85.63;97729.16;5113225;28;20035;-66
2022/04/23 02:03:22;;;;;;;7.28;4.65;;;;;;;9.12;86.33;97727.03;5114635;28;20043;-67
2022/04/23 02:06:07;;;;;;;11.40;7.18;;;;;;;9.08;87.29;97720.38;5114287;28;20043;-66
2022/04/23 02:08:52;;;;;;;10.40;6.97;;;;;;;9.00;88.04;97726.19;5113433;28;20057;-67
2022/04/23 02:11:37;;;;;;;12.68;7.68;;;;;;;8.97;88.72;97724.69;5114518;28;20047;-65
2022/04/23 02:14:21;;;;;;;7.53;5.05;;;;;;;8.98;87.92;97730.72;5114070;28;20067;-67
2022/04/23 02:17:06;;;;;;;13.18;7.30;;;;;;;8.98;88.12;97730.72;5113071;28;20377;-65
2022/04/23 02:19:53;;;;;;;13.70;8.57;;;;;;;8.77;91.12;97728.00;5114234;28;20063;-67
2022/04/23 02:22:38;;;;;;;12.27;8.23;;;;;;;8.69;91.88;97733.81;5113228;28;20047;-66
2022/04/23 02:25:22;;;;;;;13.35;8.40;;;;;;;8.60;92.36;97730.97;5113939;28;20028;-66
2022/04/23 02:28:07;;;;;;;10.05;7.68;;;;;;;8.63;91.63;97738.56;5098811;28;20091;-66
2022/04/23 02:30:52;;;;;;;10.52;6.40;;;;;;;8.69;91.50;97739.03;5114045;28;20382;-68
2022/04/23 02:33:37;;;;;;;12.77;7.72;;;;;;;8.71;90.05;97738.00;5113560;28;20042;-67
2022/04/23 02:36:21;;;;;;;12.43;7.63;;;;;;;8.67;90.47;97746.16;5113078;28;20043;-67
2022/04/23 02:39:06;;;;;;;11.73;8.35;;;;;;;8.40;92.43;97749.91;5112716;28;20036;-67
2022/04/23 02:41:51;;;;;;;13.18;8.48;;;;;;;8.24;93.98;97749.28;5112592;28;20040;-68
2022/04/23 02:44:36;;;;;;;11.38;6.90;;;;;;;8.27;94.03;97750.84;5113739;28;20035;-67
2022/04/23 02:47:20;;;;;;;13.73;7.90;;;;;;;8.24;93.83;97756.28;5112468;28;20036;-65
2022/04/23 02:50:05;;;;;;;14.10;7.45;;;;;;;8.28;93.27;97751.66;5113518;28;20031;-66
2022/04/23 02:52:50;;;;;;;9.90;5.43;;;;;;;8.32;92.83;97756.56;5112424;28;20051;-67
2022/04/23 02:55:36;;;;;;;12.73;8.25;;;;;;;8.21;93.84;97753.91;5112324;28;20043;-67
2022/04/23 02:58:21;;;;;;;17.27;8.60;;;;;;;8.04;95.43;97753.38;5098042;28;20047;-67
2022/04/23 03:01:09;;;;;;;12.43;7.47;;;;;;;8.07;95.30;97750.56;5092017;28;20043;-66
2022/04/23 03:03:56;;;;;;;10.13;6.60;;;;;;;8.18;94.33;97748.91;5092675;28;20040;-67
2022/04/23 03:06:41;;;;;;;9.75;6.10;;;;;;;8.28;94.26;97746.44;5091850;28;20040;-66
2022/04/23 03:09:26;;;;;;;13.60;7.65;;;;;;;8.37;92.72;97743.97;5092759;28;20471;-67
2022/04/23 03:12:11;;;;;;;14.55;7.47;;;;;;;8.53;92.22;97745.41;5092771;28;20089;-65
2022/04/23 03:14:57;;;;;;;15.20;8.20;;;;;;;8.58;91.75;97742.47;5091721;28;20056;-66
2022/04/23 03:17:42;;;;;;;13.90;7.55;;;;;;;8.67;90.97;97746.16;5092808;28;20425;-64
2022/04/23 03:20:27;;;;;;;8.40;5.28;;;;;;;8.66;89.58;97755.78;5092832;28;20044;-67
2022/04/23 03:23:13;;;;;;;9.18;5.15;;;;;;;8.53;90.27;97748.03;5092428;28;20032;-66
2022/04/23 03:25:59;;;;;;;10.15;5.95;;;;;;;8.50;90.90;97748.25;5092876;28;20032;-66
2022/04/23 03:28:44;;;;;;;14.20;7.88;;;;;;;8.51;90.50;97752.53;5092011;28;20035;-66
2022/04/23 03:31:29;;;;;;;14.25;7.63;;;;;;;8.51;91.54;97755.13;5091864;28;20071;-67
2022/04/23 03:34:14;;;;;;;12.73;7.45;;;;;;;8.52;91.09;97743.75;5091513;28;20044;-66
2022/04/23 03:36:59;;;;;;;7.55;5.07;;;;;;;8.58;90.93;97734.66;5091285;28;20040;-66
2022/04/23 03:39:44;;;;;;;15.10;9.10;;;;;;;8.54;92.27;97738.41;5092616;28;20466;-66
2022/04/23 03:42:29;;;;;;;16.55;8.57;;;;;;;8.49;92.75;97736.97;5092571;28;20047;-65
2022/04/23 03:45:15;;;;;;;14.27;8.43;;;;;;;8.52;92.95;97738.50;5092540;28;20040;-66
2022/04/23 03:48:01;;;;;;;14.82;8.32;;;;;;;8.58;92.76;97743.31;5093051;28;20055;-66
2022/04/23 03:50:48;;;;;;;16.90;10.18;;;;;;;8.63;92.78;97745.56;5095855;28;20088;-67
2022/04/23 03:53:34;;;;;;;22.00;10.18;;;;;;;8.57;93.86;97743.44;5096775;28;20391;-67
2022/04/23 03:56:19;;;;;;;14.90;8.80;;;;;;;8.61;92.19;97739.63;5115395;28;20126;-66
2022/04/23 03:59:03;;;;;;;10.48;5.55;;;;;;;8.52;92.11;97742.94;5117157;28;20040;-65
2022/04/23 04:01:49;;;;;;;14.95;8.82;;;;;;;8.55;92.22;97748.75;5117259;28;20039;-66
2022/04/23 04:04:34;;;;;;;16.70;9.40;;;;;;;8.55;93.05;97747.94;5116878;28;20035;-66
2022/04/23 04:07:19;;;;;;;15.10;9.25;;;;;;;8.51;92.99;97752.53;5116456;28;20539;-68
2022/04/23 04:10:04;;;;;;;22.65;11.98;;;;;;;8.55;93.35;97753.16;5116831;28;20113;-66
2022/04/23 04:12:50;;;;;;;12.07;6.30;;;;;;;8.58;92.81;97752.94;5117548;28;20043;-67
2022/04/23 04:15:36;;;;;;;10.60;6.35;;;;;;;8.60;93.42;97751.84;5116491;28;20474;-67
2022/04/23 04:18:23;;;;;;;19.67;9.52;;;;;;;8.56;94.50;97752.19;5116745;28;20062;-67
2022/04/23 04:21:08;;;;;;;23.02;12.40;;;;;;;8.50;95.33;97746.47;5116385;28;20039;-67
2022/04/23 04:23:52;;;;;;;26.88;13.00;;;;;;;8.57;94.35;97749.47;5115818;28;20043;-67
2022/04/23 04:26:37;;;;;;;21.65;11.25;;;;;;;8.63;94.16;97745.56;5116217;28;20081;-67
2022/04/23 04:29:22;;;;;;;23.75;11.77;;;;;;;8.68;93.77;97746.03;5116232;28;20129;-67
2022/04/23 04:32:07;;;;;;;25.92;12.30;;;;;;;8.53;95.26;97747.19;5116335;28;20093;-67
2022/04/23 04:34:52;;;;;;;20.98;11.05;;;;;;;8.54;94.85;97751.44;5116150;28;20035;-68
2022/04/23 04:37:37;;;;;;;28.27;13.65;;;;;;;8.52;94.68;97754.19;5116314;28;20039;-67
2022/04/23 04:40:22;;;;;;;31.67;15.63;;;;;;;8.48;95.04;97752.75;5116222;28;20031;-67
2022/04/23 04:43:07;;;;;;;30.35;14.45;;;;;;;8.32;97.10;97753.09;5116118;28;20039;-66
2022/04/23 04:45:52;;;;;;;26.88;12.95;;;;;;;8.29;97.41;97754.13;5115011;28;20067;-67
2022/04/23 04:48:37;;;;;;;35.53;17.40;;;;;;;8.06;100.00;97761.09;5116293;28;20054;-68
2022/04/23 04:51:21;;;;;;;28.98;13.70;;;;;;;7.97;100.00;97760.84;5114808;28;20039;-67
2022/04/23 04:54:07;;;;;;;30.63;15.18;;;;;;;7.88;100.00;97758.91;5111606;28;20040;-65
2022/04/23 04:56:53;;;;;;;32.42;16.75;;;;;;;7.88;100.00;97751.91;5094463;28;20060;-67
2022/04/23 04:59:38;;;;;;;36.40;15.90;;;;;;;7.94;100.00;97752.41;5112405;28;20047;-68
2022/04/23 05:02:23;;;;;;;23.67;12.43;;;;;;;7.98;100.00;97754.66;5099415;28;20032;-67
2022/04/23 05:05:08;;;;;;;40.85;18.00;;;;;;;8.10;100.00;97759.91;5093156;28;20043;-64
2022/04/23 05:07:53;;;;;;;31.08;14.20;;;;;;;8.09;100.00;97753.03;5113204;27;20032;-67
2022/04/23 05:10:38;;;;;;;16.65;9.02;;;;;;;8.26;99.66;97764.81;5099999;28;20035;-67
2022/04/23 05:13:22;;;;;;;32.78;15.55;;;;;;;8.32;98.72;97766.16;5099267;28;20093;-67
2022/04/23 05:16:08;;;;;;;33.72;15.10;;;;;;;8.40;97.23;97765.56;5094268;28;20056;-64
2022/04/23 05:18:52;;;;;;;23.92;11.63;;;;;;;8.24;98.34;97770.16;5095341;28;20543;-67
2022/04/23 05:21:37;;;;;;;35.33;15.98;;;;;;;8.26;98.40;97767.41;5098760;28;20055;-65
2022/04/23 05:24:24;;;;;;;29.48;14.32;;;;;;;8.25;98.40;97764.00;5093829;28;20039;-66
2022/04/23 05:27:09;;;;;;;32.28;16.48;;;;;;;7.99;100.00;97764.16;5093493;28;20040;-66
2022/04/23 05:29:53;;;;;;;33.67;16.35;;;;;;;8.16;99.78;97763.84;5094153;28;20414;-69
2022/04/23 05:32:38;;;;;;;30.17;14.63;;;;;;;8.32;97.82;97768.75;5079273;28;20092;-62
2022/04/23 05:35:23;;;;;;;33.83;15.55;;;;;;;8.04;99.03;97771.66;5094362;28;20036;-63
2022/04/23 05:38:08;;;;;;;29.60;13.70;;;;;;;8.05;99.03;97772.47;5093726;28;20044;-62
2022/04/23 05:40:53;;;;;;;27.92;12.93;;;;;;;8.17;98.73;97774.19;5101141;28;20385;-61
2022/04/23 05:43:38;;;;;;;25.10;11.95;;;;;;;8.25;99.59;97776.22;5114240;28;20040;-63
2022/04/23 05:46:23;;;;;;;32.25;16.13;;;;;;;8.11;99.87;97779.84;5113159;28;20462;-65
2022/04/23 05:49:08;;;;;;;15.85;7.70;;;;;;;8.52;100.00;97785.50;5113495;28;20039;-63
2022/04/23 05:51:52;;;;;;;11.15;4.88;;;;;;;8.78;100.00;97784.50;5112507;28;20562;-65
2022/04/23 05:54:37;;;;;;;24.65;12.68;;;;;;;8.91;97.22;97795.66;5098170;28;20035;-65
2022/04/23 05:57:22;;;;;;;15.00;7.28;;;;;;;8.88;97.72;97803.72;5128819;28;20035;-66
2022/04/23 06:00:10;;;;;;;21.02;9.70;;;;;;;8.81;99.08;97811.22;5114251;28;20074;-67
2022/04/23 06:02:57;;;;;;;18.30;9.10;;;;;;;9.07;97.07;97813.63;5114375;28;20485;-62
2022/04/23 06:05:42;;;;;;;24.95;11.73;;;;;;;9.01;97.98;97813.25;5093008;28;20059;-61
2022/04/23 06:08:27;;;;;;;26.17;13.15;;;;;;;8.82;96.00;97814.66;5094065;28;20039;-61
2022/04/23 06:11:12;;;;;;;29.88;14.13;;;;;;;9.08;100.00;97811.81;5093180;28;20040;-67
2022/04/23 06:13:57;;;;;;;26.52;15.00;;;;;;;8.80;95.42;97824.38;5092662;28;20064;-68
2022/04/23 06:16:42;;;;;;;27.48;15.05;;;;;;;8.77;95.44;97822.84;5093389;28;20051;-68
2022/04/23 06:19:30;;;;;;;27.63;13.63;;;;;;;8.98;94.68;97825.59;5092535;28;20105;-67
2022/04/23 06:22:15;;;;;;;30.92;14.32;;;;;;;9.84;93.64;97834.63;5093213;28;20032;-71
2022/04/23 06:24:59;;;;;;;32.53;15.38;;;;;;;9.14;93.67;97832.22;5097567;28;20034;-65
2022/04/23 06:27:45;;;;;;;27.55;14.18;;;;;;;8.77;95.12;97835.91;5099735;28;20031;-74
2022/04/23 06:30:30;;;;;;;27.73;15.05;;;;;;;8.75;96.70;97832.56;5097642;28;20607;-67
2022/04/23 06:33:15;;;;;;;29.67;14.55;;;;;;;9.30;93.99;97844.13;5092104;28;20035;-70
2022/04/23 06:36:00;;;;;;;26.08;13.90;;;;;;;9.57;91.75;97842.91;5090702;28;20036;-71
2022/04/23 06:38:45;;;;;;;25.77;13.57;;;;;;;9.49;91.44;97846.13;5090821;28;20046;-71
2022/04/23 06:41:29;;;;;;;27.52;13.43;;;;;;;9.84;90.34;97847.72;5092025;28;20028;-64
2022/04/23 06:44:15;;;;;;;25.83;13.32;;;;;;;9.81;89.23;97847.97;5090211;28;20044;-67
2022/04/23 06:47:01;;;;;;;26.70;13.50;;;;;;;9.52;90.80;97858.13;5094621;28;20046;-74
2022/04/23 06:49:45;;;;;;;25.35;13.20;;;;;;;9.64;90.80;97854.53;5113780;28;20035;-77
2022/04/23 06:52:31;;;;;;;27.27;13.63;;;;;;;10.01;89.24;97868.22;5100565;28;20040;-64
2022/04/23 06:55:15;;;;;;;26.10;13.85;;;;;;;9.96;88.76;97863.38;5108569;28;20043;-69
2022/04/23 06:58:00;;;;;;;27.92;14.88;;;;;;;9.97;88.93;97871.09;5101958;27;20048;-72
2022/04/23 07:00:45;;;;;;;26.10;12.73;;;;;;;10.05;88.57;97870.50;5113831;27;20478;-73
2022/04/23 07:03:30;;;;;;;27.83;13.82;;;;;;;10.27;86.98;97862.66;5111594;28;20035;-72
2022/04/23 07:06:16;;;;;;;23.85;10.55;;;;;;;12.24;92.50;97873.19;5111916;28;20462;-72
2022/04/23 07:09:00;;;;;;;28.98;13.73;;;;;;;11.20;84.00;97868.13;5111051;28;20039;-69
2022/04/23 07:11:45;;;;;;;28.73;13.73;;;;;;;10.68;85.71;97874.19;5101644;27;20052;-68
2022/04/23 07:14:30;;;;;;;22.20;9.90;;;;;;;13.55;92.65;97873.63;5090347;28;20118;-60
2022/04/23 07:17:15;;;;;;;24.70;10.68;;;;;;;14.79;81.48;97873.13;5113852;27;20043;-59
2022/04/23 07:19:59;;;;;;;31.63;12.82;;;;;;;14.45;69.78;97879.94;5105296;28;20043;-71
2022/04/23 07:25:50;;;;;;;30.67;15.07;;;;;;;10.89;84.04;97885.59;5104058;28;20035;-70
2022/04/23 07:28:35;;;;;;;30.15;14.02;;;;;;;10.98;85.62;97890.09;5107285;28;20036;-76
2022/04/23 07:31:20;;;;;;;30.15;14.82;;;;;;;10.53;85.83;97881.50;5093727;28;20070;-73
2022/04/23 07:40:12;;;;;;;33.72;15.32;;;;;;;9.73;90.56;97886.97;5092926;28;20035;-76
2022/04/23 07:42:56;;;;;;;30.40;15.48;;;;;;;9.67;90.73;97896.16;5095238;28;20327;-69
2022/04/23 07:45:44;;;;;;;31.20;15.50;;;;;;;9.63;91.29;97897.31;5096480;28;20065;-72
2022/04/23 07:48:28;;;;;;;31.65;15.13;;;;;;;10.15;89.22;97901.97;5091106;28;20039;-71
2022/04/23 07:51:15;;;;;;;27.70;14.13;;;;;;;10.23;87.56;97914.47;5075416;28;20222;-67
2022/04/23 07:54:00;;;;;;;29.15;13.52;;;;;;;9.91;87.68;97923.09;5098360;28;20447;-69
2022/04/23 07:56:45;;;;;;;22.55;12.38;;;;;;;9.55;90.13;97918.00;5089368;28;20055;-77
2022/04/23 07:59:29;;;;;;;26.27;13.55;;;;;;;9.30;91.09;97914.69;5082359;28;20036;-74
2022/04/23 08:02:14;;;;;;;24.80;12.55;;;;;;;9.26;91.91;97923.72;5095089;28;20044;-67
2022/04/23 08:04:59;;;;;;;26.38;13.75;;;;;;;8.99;92.85;97923.91;5096422;28;20044;-69
2022/04/23 08:07:44;;;;;;;25.67;12.65;;;;;;;9.32;91.75;97910.19;5086225;28;20044;-68
2022/04/23 08:10:29;;;;;;;26.77;13.45;;;;;;;9.85;89.94;97906.09;5090167;28;20082;-70
2022/04/23 08:13:14;;;;;;;27.73;12.30;;;;;;;10.40;87.14;97912.25;5089543;28;20064;-72
2022/04/23 08:15:59;;;;;;;24.95;13.07;;;;;;;10.56;85.54;97912.69;5092173;28;20129;-67
2022/04/23 08:18:45;;;;;;;28.88;14.43;;;;;;;10.57;85.10;97911.75;5095321;28;20042;-68
2022/04/23 08:21:29;;;;;;;23.35;12.73;;;;;;;10.38;87.21;97914.16;5101901;28;20459;-62
2022/04/23 08:24:14;;;;;;;21.80;9.77;;;;;;;10.87;88.15;97900.63;5111432;28;20035;-62
2022/04/23 08:26:59;;;;;;;21.33;10.98;;;;;;;11.30;84.28;97902.25;5109921;28;20043;-62
2022/04/23 08:32:47;;;;;;;20.63;10.98;;;;;;;12.04;80.05;97909.94;5090989;28;20074;-60
2022/04/23 08:35:33;;;;;;;21.92;10.77;;;;;;;12.39;78.29;97904.28;5093338;28;20426;-60
2022/04/23 08:38:18;;;;;;;24.08;10.80;;;;;;;12.44;77.79;97913.44;5095353;28;20036;-62
2022/04/23 08:41:04;;;;;;;19.95;9.73;;;;;;;12.63;76.64;97911.75;5095622;28;20036;-61
2022/04/23 08:43:49;;;;;;;16.85;9.30;;;;;;;12.87;75.73;97915.75;5108279;28;20035;-62
2022/04/23 08:46:39;;;;;;;20.88;10.05;;;;;;;12.83;75.73;97919.63;5093203;28;20043;-63
2022/04/23 08:49:38;;;;;;;16.33;8.75;;;;;;;12.93;74.77;97920.44;5094357;28;20055;-64
2022/04/23 08:52:33;;;;;;;18.27;9.95;;;;;;;12.75;75.34;97925.59;5094853;28;20089;-62
2022/04/23 08:55:19;;;;;;;24.08;10.88;;;;;;;12.72;75.74;97931.13;5095448;28;20036;-62
2022/04/23 08:58:03;;;;;;;20.38;9.95;;;;;;;12.90;75.29;97931.25;5094227;28;20043;-63
2022/04/23 09:00:48;;;;;;;16.42;9.23;;;;;;;13.18;73.83;97933.97;5095149;28;20383;-61
2022/04/23 09:03:32;;;;;;;19.35;10.77;;;;;;;13.28;73.52;97930.47;5100276;28;20044;-61
2022/04/23 09:06:17;;;;;;;22.92;12.70;;;;;;;13.41;72.60;97940.69;5109097;28;20051;-62
2022/04/23 09:09:10;;;;;;;14.88;8.60;;;;;;;13.52;72.10;97944.94;5093682;28;20046;-60
2022/04/23 09:11:58;;;;;;;21.60;12.95;;;;;;;13.47;71.74;97934.84;5094514;28;20040;-61
2022/04/23 09:14:44;;;;;;;17.52;10.05;;;;;;;13.38;72.01;97940.97;5094947;28;20040;-63
2022/04/23 09:24:07;;;;;;;18.55;10.20;;;;;;;13.72;69.15;97929.94;5113373;28;20490;-63
2022/04/23 09:27:03;;;;;;;16.52;10.13;;;;;;;14.48;68.39;97927.06;5113894;28;20039;-65
2022/04/23 09:30:03;;;;;;;18.38;11.05;;;;;;;15.05;66.70;97922.44;5112388;28;20059;-63
2022/04/23 09:32:58;;;;;;;20.42;10.98;;;;;;;15.62;62.50;97929.00;5114975;28;20040;-62
2022/04/23 09:35:53;;;;;;;20.33;12.07;;;;;;;15.68;61.76;97922.28;5114852;28;20110;-61
2022/04/23 09:38:41;;;;;;;17.13;9.57;;;;;;;16.29;61.10;97929.22;5114871;28;20428;-63
2022/04/23 09:41:33;;;;;;;16.98;9.98;;;;;;;17.15;58.18;97928.13;5115098;28;20089;-63
2022/04/23 09:44:29;;;;;;;21.20;11.73;;;;;;;18.09;54.55;97928.41;5114858;28;20488;-63
2022/04/23 09:47:30;;;;;;;20.10;11.77;;;;;;;18.35;52.15;97924.66;5114242;28;20055;-63
2022/04/23 09:50:16;;;;;;;17.17;10.35;;;;;;;18.16;54.36;97933.88;5113680;28;20127;-63
2022/04/23 09:53:20;;;;;;;14.93;8.55;;;;;;;17.23;56.70;97936.00;5113294;28;20042;-62
2022/04/23 09:56:07;;;;;;;16.13;10.70;;;;;;;17.02;56.59;97933.06;5113567;28;20047;-63
2022/04/23 09:58:53;;;;;;;11.15;7.03;;;;;;;17.46;57.91;97927.34;5114809;28;20053;-62
2022/04/23 10:01:38;;;;;;;15.88;8.75;;;;;;;17.58;57.00;97929.63;5114530;28;20421;-63
2022/04/23 10:04:25;;;;;;;12.00;7.57;;;;;;;17.75;57.11;97924.28;5114350;28;20100;-61
2022/04/23 10:07:10;;;;;;;15.68;9.63;;;;;;;16.54;58.72;97931.91;5114768;28;20043;-62
2022/04/23 10:10:01;;;;;;;16.80;10.07;;;;;;;16.22;59.79;97928.25;5114521;28;20065;-62
2022/04/23 10:12:49;;;;;;;14.15;8.10;;;;;;;16.38;61.32;97938.00;5114739;28;20036;-62
2022/04/23 10:15:37;;;;;;;18.83;11.43;;;;;;;15.97;60.11;97933.44;5098858;28;20070;-62
2022/04/23 10:18:24;;;;;;;17.10;9.50;;;;;;;14.92;63.89;97943.94;5113747;28;20047;-63
2022/04/23 10:21:10;;;;;;;13.27;8.63;;;;;;;15.01;63.60;97942.19;5113346;28;20046;-62
2022/04/23 10:24:02;;;;;;;11.00;7.05;;;;;;;14.96;65.35;97942.66;5113487;28;20046;-63
2022/04/23 10:26:52;;;;;;;11.95;7.97;;;;;;;15.11;63.64;97939.47;5114034;28;20389;-63
2022/04/23 10:29:37;;;;;;;12.48;7.63;;;;;;;14.93;64.04;97944.78;5114189;28;20158;-63
2022/04/23 10:32:22;;;;;;;15.40;9.07;;;;;;;14.54;64.48;97949.38;5113789;28;20071;-62
2022/04/23 10:35:19;;;;;;;16.60;10.13;;;;;;;14.71;65.66;97947.69;5113610;28;20048;-63
2022/04/23 10:38:21;;;;;;;15.32;9.13;;;;;;;14.98;62.11;97942.50;5113489;28;20089;-62
2022/04/23 10:41:07;;;;;;;17.63;11.15;;;;;;;14.96;62.07;97940.03;5112820;28;20040;-62
2022/04/23 10:44:02;;;;;;;23.08;12.98;;;;;;;15.08;62.38;97939.78;5113644;28;20485;-63
2022/04/23 10:46:46;;;;;;;19.33;11.43;;;;;;;14.82;62.92;97940.56;5112280;28;20424;-62
2022/04/23 10:49:31;;;;;;;23.25;14.00;;;;;;;15.73;59.62;97929.72;5113482;28;20174;-63
2022/04/23 10:52:35;;;;;;;17.67;10.43;;;;;;;16.17;59.55;97927.91;5113261;28;20031;-62
2022/04/23 10:55:21;;;;;;;18.38;11.07;;;;;;;17.61;53.85;97935.44;5113128;28;20114;-62
2022/04/23 10:58:24;;;;;;;18.88;11.85;;;;;;;18.14;51.79;97939.38;5112340;28;20062;-62
2022/04/23 11:01:33;;;;;;;16.65;10.98;;;;;;;19.41;47.94;97931.06;5113296;28;20040;-61
2022/04/23 11:04:19;;;;;;;18.35;11.27;;;;;;;18.57;48.88;97928.28;5111891;28;20044;-62
2022/04/23 11:13:23;;;;;;;15.52;9.57;;;;;;;17.07;51.40;97925.47;5112989;28;20070;-62
2022/04/23 11:16:11;;;;;;;17.95;11.07;;;;;;;16.56;54.07;97922.00;5113061;28;20100;-62
2022/04/23 11:18:59;;;;;;;17.13;10.57;;;;;;;16.94;53.41;97924.13;5113026;28;20501;-62
2022/04/23 11:21:46;;;;;;;14.57;9.45;;;;;;;16.93;53.88;97925.13;5097745;28;20043;-62
2022/04/23 11:24:33;;;;;;;18.08;9.73;;;;;;;17.42;53.69;97922.56;5111847;28;20534;-62
2022/04/23 11:27:25;;;;;;;17.85;10.68;;;;;;;17.42;53.18;97918.13;5112926;28;20035;-62
2022/04/23 11:30:09;;;;;;;17.73;10.82;;;;;;;17.78;50.04;97902.75;5111819;28;20035;-62
2022/04/23 11:32:54;;;;;;;15.18;9.77;;;;;;;17.84;52.60;97905.53;5112829;28;20035;-62
2022/04/23 11:35:39;;;;;;;12.82;9.23;;;;;;;18.21;49.89;97908.50;5111821;28;20044;-63
2022/04/23 11:38:26;;;;;;;15.93;10.63;;;;;;;19.36;45.90;97906.88;5112785;28;20394;-62
2022/04/23 11:41:29;;;;;;;15.63;10.05;;;;;;;18.80;48.21;97908.06;5112772;28;20038;-62
2022/04/23 11:44:20;;;;;;;12.25;7.72;;;;;;;19.05;49.29;97894.56;5110383;28;20040;-63
2022/04/23 11:47:06;;;;;;;10.30;7.28;;;;;;;18.87;50.20;97900.22;5112603;28;20385;-62
2022/04/23 11:49:51;;;;;;;11.10;6.50;;;;;;;19.02;49.12;97900.22;5112700;28;20482;-62
2022/04/23 11:52:37;;;;;;;17.60;9.35;;;;;;;18.58;49.01;97900.78;5083121;28;20036;-62
2022/04/23 11:55:27;;;;;;;11.60;7.22;;;;;;;18.30;49.45;97900.50;5112470;28;20036;-62
2022/04/23 11:58:18;;;;;;;14.77;8.55;;;;;;;18.07;50.42;97907.41;5112838;28;20122;-61
2022/04/23 12:01:03;;;;;;;10.85;7.40;;;;;;;17.71;52.21;97899.97;5096607;28;20043;-61
2022/04/23 12:03:53;;;;;;;9.32;6.13;;;;;;;18.26;51.51;97901.84;5083320;28;20039;-62
2022/04/23 12:06:46;;;;;;;12.18;8.13;;;;;;;17.87;51.26;97900.91;5111282;28;20432;-61
2022/04/23 12:09:31;;;;;;;14.82;8.85;;;;;;;18.46;50.10;97908.34;5113667;28;20096;-63
2022/04/23 12:12:19;;;;;;;13.05;7.15;;;;;;;19.26;46.95;97901.84;5116172;28;20047;-63
2022/04/23 12:15:09;;;;;;;16.23;10.20;;;;;;;18.21;49.34;97903.19;5116058;28;20051;-63
2022/04/23 12:17:55;;;;;;;15.27;9.95;;;;;;;17.83;50.42;97906.53;5115162;28;20174;-62
2022/04/23 12:20:40;;;;;;;11.43;7.88;;;;;;;17.84;51.15;97905.53;5115343;28;20363;-63
2022/04/23 12:23:39;;;;;;;17.17;9.32;;;;;;;17.88;50.28;97902.53;5116453;28;20043;-63
2022/04/23 12:26:24;;;;;;;10.00;7.40;;;;;;;17.99;51.13;97902.16;5114956;28;20039;-62
2022/04/23 12:41:31;;;;;;;10.73;6.57;;;;;;;16.68;54.02;97927.78;5107071;28;20086;-62
2022/04/23 12:44:20;;;;;;;15.82;8.27;;;;;;;16.28;54.09;97926.75;5115897;28;20093;-64
2022/04/23 12:47:06;;;;;;;11.57;6.93;;;;;;;16.05;56.46;97920.28;5114900;28;20040;-62
2022/04/23 12:49:55;;;;;;;14.57;8.27;;;;;;;15.93;55.83;97921.53;5115766;28;20039;-62
2022/04/23 12:52:47;;;;;;;9.40;6.03;;;;;;;15.75;57.59;97920.66;5116227;28;20043;-62
2022/04/23 12:55:37;;;;;;;;;;;;;;;15.64;56.93;97918.28;5116045;28;20409;-62
2022/04/23 12:58:21;;;;;;;15.48;8.60;;;;;;;15.42;58.22;97922.31;5115708;28;19919;-62
2022/04/23 13:01:08;;;;;;;9.65;6.63;;;;;;;15.19;59.05;97917.56;5116057;28;20115;-62
2022/04/23 13:03:54;;;;;;;14.10;7.97;;;;;;;15.08;59.00;97916.03;5115850;28;20051;-62
2022/04/23 13:09:42;;;;;;;11.23;7.28;;;;;;;14.99;59.48;97908.06;5115220;28;20044;-62
2022/04/23 13:12:28;;;;;;;12.65;8.43;;;;;;;14.93;59.19;97908.69;5114995;28;20115;-62
2022/04/23 13:15:15;;;;;;;13.40;7.85;;;;;;;14.75;60.46;97916.59;5115038;28;20040;-61
2022/04/23 13:18:00;;;;;;;16.85;9.45;;;;;;;14.62;60.73;97911.72;5114443;28;20530;-62
2022/04/23 13:20:45;;;;;;;14.57;8.40;;;;;;;14.66;60.44;97908.63;5114607;28;20172;-62
2022/04/23 13:23:31;;;;;;;12.10;6.80;;;;;;;14.68;60.72;97905.84;5115265;28;20428;-61
2022/04/23 13:26:16;;;;;;;10.32;6.72;;;;;;;14.61;60.21;97905.59;5115281;28;20396;-60
2022/04/23 13:29:00;;;;;;;11.13;7.18;;;;;;;14.62;59.67;97899.34;5115346;28;20110;-60
2022/04/23 13:31:45;;;;;;;8.65;6.03;;;;;;;14.90;59.62;97896.63;5115223;28;20067;-62
2022/04/23 13:34:30;;;;;;;14.55;9.10;;;;;;;15.00;59.06;97896.53;5114764;28;20057;-62
2022/04/23 13:37:17;;;;;;;10.90;6.55;;;;;;;15.05;59.08;97898.69;5113780;28;20063;-62